createdAt,value
2023-04-07T00:01:33.927Z,100786.47
2023-04-07T00:05:26.711Z,100791.00
2023-04-07T00:09:12.803Z,100796.11
2023-04-07T00:12:59.083Z,100795.85
2023-04-07T00:16:46.371Z,100801.60
2023-04-07T00:20:33.866Z,100798.89
2023-04-07T00:24:31.140Z,100797.23
2023-04-07T00:28:26.514Z,100796.05
2023-04-07T00:32:26.176Z,100800.29
2023-04-07T00:36:30.195Z,100797.75
2023-04-07T00:40:33.416Z,100802.27
2023-04-07T00:44:33.265Z,100797.77
2023-04-07T00:48:36.388Z,100795.96
2023-04-07T00:52:36.407Z,100788.48
2023-04-07T00:56:39.769Z,100791.18
2023-04-07T01:00:40.628Z,100797.56
2023-04-07T01:04:34.694Z,100796.02
2023-04-07T01:08:08.867Z,100799.62
2023-04-07T01:12:04.177Z,100804.25
2023-04-07T01:15:58.694Z,100798.22
2023-04-07T01:19:53.622Z,100804.52
2023-04-07T01:23:57.903Z,100811.84
2023-04-07T01:27:56.606Z,100813.02
2023-04-07T01:32:00.008Z,100822.10
2023-04-07T01:35:58.633Z,100821.50
2023-04-07T01:40:01.974Z,100826.59
2023-04-07T01:44:01.451Z,100827.36
2023-04-07T01:48:04.448Z,100832.20
2023-04-07T01:52:04.495Z,100831.79
2023-04-07T01:56:07.000Z,100827.91
2023-04-07T01:59:59.650Z,100834.30
2023-04-07T02:03:51.151Z,100837.97
2023-04-07T02:07:37.486Z,100838.81
2023-04-07T02:11:32.414Z,100842.00
2023-04-07T02:15:22.243Z,100848.33
2023-04-07T02:19:09.564Z,100849.62
2023-04-07T02:22:56.049Z,100851.66
2023-04-07T02:26:43.007Z,100853.39
2023-04-07T02:30:29.275Z,100861.01
2023-04-07T02:34:16.435Z,100861.61
2023-04-07T02:38:03.120Z,100865.58
2023-04-07T02:41:49.863Z,100872.27
2023-04-07T02:45:36.224Z,100878.86
2023-04-07T02:49:24.383Z,100881.16
2023-04-07T02:53:10.408Z,100878.98
2023-04-07T02:56:56.831Z,100880.61
2023-04-07T03:00:44.676Z,100880.02
2023-04-07T03:04:34.805Z,100880.55
2023-04-07T03:08:21.169Z,100887.77
2023-04-07T03:12:09.920Z,100893.39
2023-04-07T03:15:56.443Z,100900.93
2023-04-07T03:19:43.310Z,100896.46
2023-04-07T03:23:29.786Z,100900.17
2023-04-07T03:27:18.100Z,100906.08
2023-04-07T03:31:08.018Z,100914.64
2023-04-07T03:34:54.994Z,100917.66
2023-04-07T03:38:41.498Z,100931.61
2023-04-07T03:42:28.957Z,100936.70
2023-04-07T03:46:20.779Z,100939.89
2023-04-07T03:50:07.827Z,100944.95
2023-04-07T03:54:00.020Z,100946.91
2023-04-07T03:58:04.918Z,100946.70
2023-04-07T04:02:08.971Z,100946.09
2023-04-07T04:06:12.723Z,100951.11
2023-04-07T04:10:12.642Z,100953.39
2023-04-07T04:14:21.541Z,100958.90
2023-04-07T04:18:26.719Z,100955.84
2023-04-07T04:22:30.304Z,100957.05
2023-04-07T04:26:30.903Z,100957.30
2023-04-07T04:30:28.881Z,100955.49
2023-04-07T04:34:18.959Z,100962.33
2023-04-07T04:38:19.927Z,100965.71
2023-04-07T04:42:35.357Z,100963.43
2023-04-07T04:46:35.024Z,100964.35
2023-04-07T04:50:35.135Z,100967.17
2023-04-07T04:54:40.916Z,100966.58
2023-04-07T04:58:45.140Z,100972.14
2023-04-07T05:02:47.188Z,100971.09
2023-04-07T05:06:50.223Z,100977.64
2023-04-07T05:10:51.872Z,100976.52
2023-04-07T05:14:56.258Z,100979.90
2023-04-07T05:19:02.975Z,100983.59
2023-04-07T05:23:06.789Z,100987.48
2023-04-07T05:27:07.734Z,100992.26
2023-04-07T05:31:16.590Z,100994.19
2023-04-07T05:35:17.042Z,100996.70
2023-04-07T05:39:25.957Z,100988.42
2023-04-07T05:43:27.968Z,100990.25
2023-04-07T05:47:31.042Z,100982.36
2023-04-07T05:51:30.891Z,100987.89
2023-04-07T05:55:34.352Z,100990.83
2023-04-07T05:59:35.037Z,100993.91
2023-04-07T06:03:43.431Z,100990.23
2023-04-07T06:07:51.954Z,100993.11
2023-04-07T06:11:56.201Z,100995.65
2023-04-07T06:15:54.980Z,101000.34
2023-04-07T06:19:59.320Z,101003.36
2023-04-07T06:23:59.099Z,101008.80
2023-04-07T06:28:03.755Z,101008.52
2023-04-07T06:32:03.168Z,101016.55
2023-04-07T06:36:05.847Z,101019.05
2023-04-07T06:40:11.060Z,101017.80
2023-04-07T06:44:13.877Z,101026.23
2023-04-07T06:48:13.091Z,101029.89
2023-04-07T06:52:16.036Z,101031.54
2023-04-07T06:56:17.998Z,101033.66
2023-04-07T07:00:20.449Z,101039.94
2023-04-07T07:04:21.241Z,101036.90
2023-04-07T07:08:23.860Z,101042.83
2023-04-07T07:12:23.142Z,101045.48
2023-04-07T07:16:25.922Z,101047.52
2023-04-07T07:20:28.291Z,101054.35
2023-04-07T07:24:30.981Z,101050.69
2023-04-07T07:28:28.985Z,101049.56
2023-04-07T07:32:32.574Z,101053.75
2023-04-07T07:36:30.993Z,101053.71
2023-04-07T07:40:34.004Z,101053.05
2023-04-07T07:44:17.743Z,101050.69
2023-04-07T07:48:15.966Z,101051.79
2023-04-07T07:52:19.180Z,101058.74
2023-04-07T07:56:18.922Z,101051.47
2023-04-07T08:00:21.723Z,101048.95
2023-04-07T08:04:23.156Z,101044.40
2023-04-07T08:08:25.633Z,101052.05
2023-04-07T08:12:25.103Z,101050.58
2023-04-07T08:16:27.637Z,101052.69
2023-04-07T08:20:25.967Z,101058.81
2023-04-07T08:24:28.991Z,101058.27
2023-04-07T08:28:29.180Z,101056.53
2023-04-07T08:32:31.703Z,101052.75
2023-04-07T08:36:30.278Z,101052.35
2023-04-07T08:40:32.690Z,101049.37
2023-04-07T08:44:33.102Z,101052.68
2023-04-07T08:48:35.187Z,101050.16
2023-04-07T08:52:35.064Z,101051.65
2023-04-07T08:56:37.927Z,101049.86
2023-04-07T09:00:37.160Z,101055.00
2023-04-07T09:04:42.866Z,101056.92
2023-04-07T09:08:41.154Z,101056.42
2023-04-07T09:12:47.124Z,101054.06
2023-04-07T09:16:45.192Z,101057.35
2023-04-07T09:20:49.390Z,101055.02
2023-04-07T09:24:48.354Z,101052.02
2023-04-07T09:28:51.345Z,101050.70
2023-04-07T09:32:50.209Z,101054.27
2023-04-07T09:36:53.031Z,101054.49
2023-04-07T09:40:51.283Z,101048.44
2023-04-07T09:44:53.726Z,101050.23
2023-04-07T09:48:53.373Z,101046.02
2023-04-07T09:52:56.354Z,101042.54
2023-04-07T09:56:56.161Z,101045.61
2023-04-07T10:00:42.429Z,101043.75
2023-04-07T10:04:48.457Z,101041.14
2023-04-07T10:08:48.543Z,101045.61
2023-04-07T10:12:53.226Z,101045.30
2023-04-07T10:16:53.418Z,101047.94
2023-04-07T10:20:56.204Z,101045.36
2023-04-07T10:24:55.430Z,101046.92
2023-04-07T10:28:58.008Z,101047.08
2023-04-07T10:32:56.491Z,101049.36
2023-04-07T10:36:59.850Z,101047.88
2023-04-07T10:40:59.458Z,101049.44
2023-04-07T10:45:03.425Z,101049.05
2023-04-07T10:49:03.582Z,101049.02
2023-04-07T10:53:06.280Z,101048.16
2023-04-07T10:57:06.446Z,101043.59
2023-04-07T11:01:09.232Z,101041.43
2023-04-07T11:05:09.406Z,101040.59
2023-04-07T11:09:12.455Z,101039.48
2023-04-07T11:13:16.523Z,101035.40
2023-04-07T11:17:19.288Z,101039.16
2023-04-07T11:21:19.605Z,101035.38
2023-04-07T11:25:24.375Z,101030.73
2023-04-07T11:29:29.561Z,101033.24
2023-04-07T11:33:29.385Z,101029.77
2023-04-07T11:37:32.466Z,101028.61
2023-04-07T11:41:31.496Z,101029.19
2023-04-07T11:45:34.515Z,101027.66
2023-04-07T11:49:33.302Z,101029.27
2023-04-07T11:53:35.961Z,101032.33
2023-04-07T11:57:35.708Z,101026.25
2023-04-07T12:01:38.561Z,101025.02
2023-04-07T12:05:38.687Z,101022.80
2023-04-07T12:09:42.093Z,101018.40
2023-04-07T12:13:42.694Z,101018.31
2023-04-07T12:17:45.956Z,101018.06
2023-04-07T12:21:46.789Z,101016.30
2023-04-07T12:25:49.196Z,101015.63
2023-04-07T12:29:50.611Z,101018.14
2023-04-07T12:33:54.484Z,101017.81
2023-04-07T12:37:57.687Z,101015.48
2023-04-07T12:41:57.162Z,101013.92
2023-04-07T12:45:59.769Z,101008.02
2023-04-07T12:50:01.072Z,101009.52
2023-04-07T12:53:58.507Z,101006.20
2023-04-07T12:57:58.693Z,101001.96
2023-04-07T13:01:56.943Z,100999.02
2023-04-07T13:05:55.368Z,100998.17
2023-04-07T13:09:57.878Z,100999.97
2023-04-07T13:14:01.251Z,101002.56
2023-04-07T13:17:58.903Z,100999.55
2023-04-07T13:21:59.878Z,101003.30
2023-04-07T13:25:56.920Z,101003.52
2023-04-07T13:29:57.676Z,101001.80
2023-04-07T13:33:54.612Z,101002.54
2023-04-07T13:37:55.374Z,101000.50
2023-04-07T13:41:42.039Z,100996.31
2023-04-07T13:45:30.040Z,100993.90
2023-04-07T13:49:16.133Z,100987.13
2023-04-07T13:53:02.164Z,100989.61
2023-04-07T13:56:48.857Z,100990.01
2023-04-07T14:00:40.919Z,100993.97
2023-04-07T14:04:36.887Z,100991.27
2023-04-07T14:08:38.716Z,100985.54
2023-04-07T14:12:36.052Z,100984.11
2023-04-07T14:16:40.183Z,100985.04
2023-04-07T14:20:36.628Z,100979.99
2023-04-07T14:24:38.329Z,100978.20
2023-04-07T14:28:48.015Z,100975.97
2023-04-07T14:32:44.812Z,100978.08
2023-04-07T14:36:32.534Z,100972.66
2023-04-07T14:40:21.212Z,100968.02
2023-04-07T14:44:07.781Z,100968.75
2023-04-07T14:47:54.484Z,100965.69
2023-04-07T14:51:40.723Z,100965.97
2023-04-07T14:55:33.372Z,100964.42
2023-04-07T14:59:29.054Z,100965.97
2023-04-07T15:03:26.359Z,100968.36
2023-04-07T15:07:26.587Z,100964.54
2023-04-07T15:11:24.248Z,100955.14
2023-04-07T15:15:24.888Z,100954.98
2023-04-07T15:19:26.118Z,100956.98
2023-04-07T15:23:29.983Z,100962.47
2023-04-07T15:27:27.122Z,100967.27
2023-04-07T15:31:20.031Z,100970.64
2023-04-07T15:35:06.519Z,100971.73
2023-04-07T15:38:53.251Z,100975.92
2023-04-07T15:42:46.441Z,100983.45
2023-04-07T15:46:38.958Z,100987.17
2023-04-07T15:50:31.682Z,100988.13
2023-04-07T15:54:08.350Z,100992.60
2023-04-07T15:58:09.035Z,100998.31
2023-04-07T16:02:06.289Z,101001.73
2023-04-07T16:06:07.678Z,101006.28
2023-04-07T16:10:05.127Z,101013.86
2023-04-07T16:14:08.959Z,101015.38
2023-04-07T16:18:07.902Z,101018.19
2023-04-07T16:22:01.036Z,101019.73
2023-04-07T16:25:53.188Z,101025.88
2023-04-07T16:29:46.362Z,101036.19
2023-04-07T16:33:49.093Z,101040.76
2023-04-07T16:37:54.921Z,101043.48
2023-04-07T16:41:58.081Z,101048.42
2023-04-07T16:46:00.189Z,101053.52
2023-04-07T16:50:03.500Z,101057.30
2023-04-07T16:54:02.049Z,101066.02
2023-04-07T16:58:05.055Z,101063.77
2023-04-07T17:02:05.014Z,101066.73
2023-04-07T17:06:09.105Z,101068.59
2023-04-07T17:10:09.919Z,101077.08
2023-04-07T17:14:12.072Z,101076.25
2023-04-07T17:18:11.074Z,101077.19
2023-04-07T17:22:12.992Z,101076.21
2023-04-07T17:26:07.194Z,101076.70
2023-04-07T17:30:11.596Z,101077.23
2023-04-07T17:34:10.904Z,101081.46
2023-04-07T17:38:14.421Z,101083.49
2023-04-07T17:42:13.973Z,101090.59
2023-04-07T17:46:17.044Z,101100.02
2023-04-07T17:50:15.938Z,101094.86
2023-04-07T17:54:15.091Z,101099.29
2023-04-07T17:58:09.796Z,101102.05
2023-04-07T18:02:17.654Z,101106.27
2023-04-07T18:06:21.069Z,101104.81
2023-04-07T18:10:21.245Z,101108.60
2023-04-07T18:14:32.987Z,101109.29
2023-04-07T18:18:31.220Z,101108.84
2023-04-07T18:22:34.061Z,101113.09
2023-04-07T18:26:28.723Z,101119.96
2023-04-07T18:30:27.402Z,101120.08
2023-04-07T18:34:35.244Z,101121.88
2023-04-07T18:38:40.550Z,101122.77
2023-04-07T18:42:40.186Z,101124.78
2023-04-07T18:46:43.768Z,101122.20
2023-04-07T18:50:44.253Z,101118.77
2023-04-07T18:54:42.429Z,101122.80
2023-04-07T18:58:40.328Z,101125.63
2023-04-07T19:02:44.851Z,101119.96
2023-04-07T19:06:46.250Z,101114.01
2023-04-07T19:10:55.064Z,101107.21
2023-04-07T19:14:56.141Z,101107.98
2023-04-07T19:18:59.766Z,101112.02
2023-04-07T19:23:00.249Z,101110.66
2023-04-07T19:27:05.163Z,101110.77
2023-04-07T19:31:05.161Z,101116.58
2023-04-07T19:35:08.249Z,101121.61
2023-04-07T19:39:10.190Z,101120.34
2023-04-07T19:43:14.217Z,101125.50
2023-04-07T19:47:14.302Z,101124.45
2023-04-07T19:51:18.317Z,101122.98
2023-04-07T19:55:17.137Z,101119.86
2023-04-07T19:59:16.438Z,101121.05
2023-04-07T20:03:23.331Z,101116.23
2023-04-07T20:07:26.331Z,101117.45
2023-04-07T20:11:25.362Z,101113.61
2023-04-07T20:15:29.399Z,101112.28
2023-04-07T20:19:28.478Z,101114.23
2023-04-07T20:23:26.455Z,101108.58
2023-04-07T20:27:26.478Z,101103.81
2023-04-07T20:31:26.674Z,101102.27
2023-04-07T20:35:32.530Z,101104.30
2023-04-07T20:39:34.225Z,101099.09
2023-04-07T20:43:37.477Z,101092.73
2023-04-07T20:47:37.251Z,101095.16
2023-04-07T20:51:40.074Z,101095.73
2023-04-07T20:55:39.421Z,101089.42
2023-04-07T20:59:42.559Z,101079.97
2023-04-07T21:03:42.499Z,101083.45
2023-04-07T21:07:45.466Z,101085.37
2023-04-07T21:11:47.332Z,101082.81
2023-04-07T21:15:50.426Z,101090.26
2023-04-07T21:19:51.355Z,101083.67
2023-04-07T21:23:57.608Z,101084.35
2023-04-07T21:27:57.551Z,101083.00
2023-04-07T21:32:01.205Z,101095.31
2023-04-07T21:36:01.549Z,101095.85
2023-04-07T21:40:04.518Z,101100.75
2023-04-07T21:43:47.872Z,101098.15
2023-04-07T21:47:48.554Z,101089.80
2023-04-07T21:51:52.567Z,101093.95
2023-04-07T21:55:52.572Z,101099.77
2023-04-07T21:59:55.514Z,101109.71
2023-04-07T22:04:07.767Z,101107.34
2023-04-07T22:08:10.561Z,101103.27
2023-04-07T22:12:09.535Z,101102.71
2023-04-07T22:16:13.091Z,101102.96
2023-04-07T22:20:20.675Z,101101.65
2023-04-07T22:24:24.112Z,101103.50
2023-04-07T22:28:23.620Z,101095.02
2023-04-07T22:32:26.641Z,101097.95
2023-04-07T22:36:25.585Z,101098.30
2023-04-07T22:40:30.198Z,101102.29
2023-04-07T22:44:29.651Z,101102.02
2023-04-07T22:48:32.232Z,101099.16
2023-04-07T22:52:30.958Z,101098.69
2023-04-07T22:56:33.904Z,101099.69
2023-04-07T23:00:33.838Z,101100.67
2023-04-07T23:04:34.419Z,101100.08
2023-04-07T23:08:35.366Z,101095.64
2023-04-07T23:12:38.538Z,101097.84
2023-04-07T23:16:36.693Z,101091.80
2023-04-07T23:20:39.619Z,101088.77
2023-04-07T23:24:46.826Z,101091.14
2023-04-07T23:28:49.699Z,101086.65
2023-04-07T23:32:44.761Z,101088.46
2023-04-07T23:36:43.077Z,101086.31
2023-04-07T23:40:47.815Z,101085.91
2023-04-07T23:44:51.268Z,101086.85
2023-04-07T23:48:50.954Z,101083.86
2023-04-07T23:52:54.180Z,101085.11
2023-04-07T23:56:53.596Z,101083.02
